sensor_id;sensor_type;location;lat;lon;timestamp;pressure;altitude;pressure_sealevel;temperature;humidity
84758;BME280;74981;52.476;16.656;2024-02-26T00:04:50;99562.02;;;2.24;82.57
84758;BME280;74981;52.476;16.656;2024-02-26T00:09:52;99561.84;;;2.22;82.96
84758;BME280;74981;52.476;16.656;2024-02-26T00:14:55;99563.56;;;2.20;84.08
84758;BME280;74981;52.476;16.656;2024-02-26T00:19:57;99562.45;;;2.23;84.29
84758;BME280;74981;52.476;16.656;2024-02-26T00:24:59;99561.53;;;2.34;84.36
84758;BME280;74981;52.476;16.656;2024-02-26T00:30:01;99561.45;;;2.40;84.28
84758;BME280;74981;52.476;16.656;2024-02-26T00:35:05;99561.93;;;2.44;83.71
84758;BME280;74981;52.476;16.656;2024-02-26T00:40:08;99564.06;;;2.51;82.82
84758;BME280;74981;52.476;16.656;2024-02-26T00:45:11;99553.81;;;2.51;83.68
84758;BME280;74981;52.476;16.656;2024-02-26T00:50:14;99557.00;;;2.51;83.58
84758;BME280;74981;52.476;16.656;2024-02-26T00:55:16;99560.62;;;2.55;83.36
84758;BME280;74981;52.476;16.656;2024-02-26T01:00:19;99561.65;;;2.58;83.39
84758;BME280;74981;52.476;16.656;2024-02-26T01:05:22;99558.30;;;2.52;83.30
84758;BME280;74981;52.476;16.656;2024-02-26T01:10:24;99549.36;;;2.49;82.36
84758;BME280;74981;52.476;16.656;2024-02-26T01:15:26;99548.39;;;2.48;83.09
84758;BME280;74981;52.476;16.656;2024-02-26T01:20:29;99545.88;;;2.48;82.93
84758;BME280;74981;52.476;16.656;2024-02-26T01:25:31;99542.50;;;2.44;82.83
84758;BME280;74981;52.476;16.656;2024-02-26T01:30:34;99540.63;;;2.35;82.21
84758;BME280;74981;52.476;16.656;2024-02-26T01:35:36;99536.58;;;2.24;82.74
84758;BME280;74981;52.476;16.656;2024-02-26T01:40:38;99547.41;;;2.21;82.39
84758;BME280;74981;52.476;16.656;2024-02-26T01:45:40;99549.98;;;2.12;82.01
84758;BME280;74981;52.476;16.656;2024-02-26T01:50:43;99549.18;;;2.00;81.87
84758;BME280;74981;52.476;16.656;2024-02-26T01:55:45;99545.33;;;1.97;81.97
84758;BME280;74981;52.476;16.656;2024-02-26T02:00:47;99547.69;;;1.96;82.25
84758;BME280;74981;52.476;16.656;2024-02-26T02:05:50;99549.92;;;1.89;82.13
84758;BME280;74981;52.476;16.656;2024-02-26T02:10:52;99551.09;;;1.83;81.96
84758;BME280;74981;52.476;16.656;2024-02-26T02:15:55;99554.69;;;1.84;81.57
84758;BME280;74981;52.476;16.656;2024-02-26T02:20:57;99554.73;;;1.84;81.79
84758;BME280;74981;52.476;16.656;2024-02-26T02:26:01;99547.27;;;1.74;81.50
84758;BME280;74981;52.476;16.656;2024-02-26T02:31:04;99544.00;;;1.65;81.67
84758;BME280;74981;52.476;16.656;2024-02-26T02:36:08;99537.36;;;1.58;81.55
84758;BME280;74981;52.476;16.656;2024-02-26T02:41:10;99530.94;;;1.51;81.76
84758;BME280;74981;52.476;16.656;2024-02-26T02:46:12;99523.25;;;1.47;81.77
84758;BME280;74981;52.476;16.656;2024-02-26T02:51:14;99516.39;;;1.42;81.95
84758;BME280;74981;52.476;16.656;2024-02-26T02:56:16;99513.80;;;1.41;82.21
84758;BME280;74981;52.476;16.656;2024-02-26T03:01:19;99517.05;;;1.37;82.37
84758;BME280;74981;52.476;16.656;2024-02-26T03:06:22;99516.45;;;1.33;82.38
84758;BME280;74981;52.476;16.656;2024-02-26T03:11:24;99514.09;;;1.37;82.22
84758;BME280;74981;52.476;16.656;2024-02-26T03:16:27;99514.63;;;1.42;82.33
84758;BME280;74981;52.476;16.656;2024-02-26T03:21:29;99515.56;;;1.41;82.35
84758;BME280;74981;52.476;16.656;2024-02-26T03:26:31;99522.66;;;1.35;82.63
84758;BME280;74981;52.476;16.656;2024-02-26T03:31:34;99521.80;;;1.35;82.23
84758;BME280;74981;52.476;16.656;2024-02-26T03:36:37;99524.39;;;1.33;82.20
84758;BME280;74981;52.476;16.656;2024-02-26T03:41:39;99522.14;;;1.24;81.87
84758;BME280;74981;52.476;16.656;2024-02-26T03:46:41;99526.37;;;1.08;82.39
84758;BME280;74981;52.476;16.656;2024-02-26T03:51:43;99533.04;;;1.06;82.65
84758;BME280;74981;52.476;16.656;2024-02-26T03:56:46;99533.14;;;1.12;82.63
84758;BME280;74981;52.476;16.656;2024-02-26T04:01:48;99530.37;;;1.14;82.43
84758;BME280;74981;52.476;16.656;2024-02-26T04:06:50;99529.42;;;1.10;81.89
84758;BME280;74981;52.476;16.656;2024-02-26T04:11:52;99534.66;;;1.08;81.96
84758;BME280;74981;52.476;16.656;2024-02-26T04:16:55;99534.95;;;0.98;81.81
84758;BME280;74981;52.476;16.656;2024-02-26T04:21:57;99541.27;;;0.87;82.33
84758;BME280;74981;52.476;16.656;2024-02-26T04:27:00;99540.63;;;0.75;82.49
84758;BME280;74981;52.476;16.656;2024-02-26T04:32:02;99545.10;;;0.71;82.74
84758;BME280;74981;52.476;16.656;2024-02-26T04:37:04;99546.13;;;0.74;82.48
84758;BME280;74981;52.476;16.656;2024-02-26T04:42:07;99546.66;;;0.74;82.60
84758;BME280;74981;52.476;16.656;2024-02-26T04:47:09;99546.28;;;0.66;82.62
84758;BME280;74981;52.476;16.656;2024-02-26T04:52:11;99548.21;;;0.55;82.58
84758;BME280;74981;52.476;16.656;2024-02-26T04:57:14;99549.54;;;0.60;82.57
84758;BME280;74981;52.476;16.656;2024-02-26T05:02:16;99546.23;;;0.70;82.34
84758;BME280;74981;52.476;16.656;2024-02-26T05:07:18;99545.89;;;0.75;82.26
84758;BME280;74981;52.476;16.656;2024-02-26T05:12:20;99542.85;;;0.70;82.50
84758;BME280;74981;52.476;16.656;2024-02-26T05:17:23;99543.00;;;0.57;82.65
84758;BME280;74981;52.476;16.656;2024-02-26T05:22:25;99549.30;;;0.52;82.61
84758;BME280;74981;52.476;16.656;2024-02-26T05:27:27;99558.77;;;0.53;82.37
84758;BME280;74981;52.476;16.656;2024-02-26T05:32:30;99558.61;;;0.50;82.11
84758;BME280;74981;52.476;16.656;2024-02-26T05:37:32;99560.27;;;0.43;82.01
84758;BME280;74981;52.476;16.656;2024-02-26T05:42:34;99570.13;;;0.34;81.84
84758;BME280;74981;52.476;16.656;2024-02-26T05:47:37;99574.30;;;0.29;82.20
84758;BME280;74981;52.476;16.656;2024-02-26T05:52:41;99578.67;;;0.27;82.22
84758;BME280;74981;52.476;16.656;2024-02-26T05:57:43;99579.96;;;0.29;81.99
84758;BME280;74981;52.476;16.656;2024-02-26T06:02:45;99581.58;;;0.31;81.91
84758;BME280;74981;52.476;16.656;2024-02-26T06:07:48;99580.74;;;0.42;82.06
84758;BME280;74981;52.476;16.656;2024-02-26T06:12:50;99584.05;;;0.54;82.05
84758;BME280;74981;52.476;16.656;2024-02-26T06:17:52;99582.88;;;0.62;81.81
84758;BME280;74981;52.476;16.656;2024-02-26T06:22:54;99579.23;;;0.75;81.85
84758;BME280;74981;52.476;16.656;2024-02-26T06:27:57;99585.86;;;0.99;81.75
84758;BME280;74981;52.476;16.656;2024-02-26T06:32:59;99590.16;;;1.28;81.88
84758;BME280;74981;52.476;16.656;2024-02-26T06:38:02;99594.04;;;1.74;81.79
84758;BME280;74981;52.476;16.656;2024-02-26T06:43:04;99597.68;;;2.45;81.14
84758;BME280;74981;52.476;16.656;2024-02-26T06:48:07;99598.85;;;3.55;80.95
84758;BME280;74981;52.476;16.656;2024-02-26T06:53:10;99596.52;;;4.56;79.08
84758;BME280;74981;52.476;16.656;2024-02-26T06:58:13;99590.48;;;5.08;78.15
84758;BME280;74981;52.476;16.656;2024-02-26T07:03:15;99588.67;;;5.65;77.10
84758;BME280;74981;52.476;16.656;2024-02-26T07:08:17;99589.83;;;5.71;76.65
84758;BME280;74981;52.476;16.656;2024-02-26T07:13:20;99593.66;;;5.65;76.38
84758;BME280;74981;52.476;16.656;2024-02-26T07:18:22;99595.71;;;5.43;75.65
84758;BME280;74981;52.476;16.656;2024-02-26T07:23:25;99604.36;;;5.08;75.98
84758;BME280;74981;52.476;16.656;2024-02-26T07:28:27;99605.73;;;4.95;76.55
84758;BME280;74981;52.476;16.656;2024-02-26T07:33:29;99604.40;;;5.03;76.83
84758;BME280;74981;52.476;16.656;2024-02-26T07:38:32;99598.55;;;5.27;76.89
84758;BME280;74981;52.476;16.656;2024-02-26T07:43:34;99595.52;;;5.58;77.21
84758;BME280;74981;52.476;16.656;2024-02-26T07:48:36;99594.61;;;6.06;77.64
84758;BME280;74981;52.476;16.656;2024-02-26T07:53:38;99595.86;;;6.52;77.25
84758;BME280;74981;52.476;16.656;2024-02-26T07:58:41;99603.17;;;6.85;76.50
84758;BME280;74981;52.476;16.656;2024-02-26T08:03:43;99619.80;;;7.12;76.21
84758;BME280;74981;52.476;16.656;2024-02-26T08:08:46;99622.72;;;7.48;76.57
84758;BME280;74981;52.476;16.656;2024-02-26T08:13:48;99620.20;;;7.76;74.67
84758;BME280;74981;52.476;16.656;2024-02-26T08:18:50;99618.16;;;7.90;74.12
84758;BME280;74981;52.476;16.656;2024-02-26T08:23:53;99622.02;;;7.95;73.48
84758;BME280;74981;52.476;16.656;2024-02-26T08:28:55;99622.80;;;8.02;73.84
84758;BME280;74981;52.476;16.656;2024-02-26T08:33:58;99618.83;;;8.16;72.90
84758;BME280;74981;52.476;16.656;2024-02-26T08:39:01;99615.15;;;8.25;73.04
84758;BME280;74981;52.476;16.656;2024-02-26T08:44:03;99613.82;;;8.41;73.20
84758;BME280;74981;52.476;16.656;2024-02-26T08:49:06;99618.45;;;8.63;73.19
84758;BME280;74981;52.476;16.656;2024-02-26T08:54:08;99619.58;;;8.88;72.65
84758;BME280;74981;52.476;16.656;2024-02-26T08:59:11;99623.63;;;9.19;73.29
84758;BME280;74981;52.476;16.656;2024-02-26T09:04:13;99626.95;;;9.54;72.74
84758;BME280;74981;52.476;16.656;2024-02-26T09:09:15;99622.77;;;9.82;72.40
84758;BME280;74981;52.476;16.656;2024-02-26T09:14:18;99623.30;;;10.20;72.24
84758;BME280;74981;52.476;16.656;2024-02-26T09:19:20;99618.29;;;10.59;70.84
84758;BME280;74981;52.476;16.656;2024-02-26T09:24:22;99608.91;;;10.91;70.22
84758;BME280;74981;52.476;16.656;2024-02-26T09:29:25;99609.50;;;11.09;68.36
84758;BME280;74981;52.476;16.656;2024-02-26T09:34:27;99614.09;;;11.29;67.83
84758;BME280;74981;52.476;16.656;2024-02-26T09:39:29;99616.82;;;11.59;67.71
84758;BME280;74981;52.476;16.656;2024-02-26T09:44:34;99612.02;;;11.82;65.95
84758;BME280;74981;52.476;16.656;2024-02-26T09:49:38;99613.96;;;12.01;65.02
84758;BME280;74981;52.476;16.656;2024-02-26T09:54:42;99606.90;;;12.24;64.87
84758;BME280;74981;52.476;16.656;2024-02-26T09:59:45;99606.82;;;12.43;63.18
84758;BME280;74981;52.476;16.656;2024-02-26T10:04:49;99608.18;;;12.60;62.43
84758;BME280;74981;52.476;16.656;2024-02-26T10:09:51;99605.33;;;12.74;62.31
84758;BME280;74981;52.476;16.656;2024-02-26T10:14:54;99606.25;;;12.82;62.01
84758;BME280;74981;52.476;16.656;2024-02-26T10:20:19;99607.48;;;12.89;62.25
84758;BME280;74981;52.476;16.656;2024-02-26T10:25:21;99597.48;;;13.07;61.81
84758;BME280;74981;52.476;16.656;2024-02-26T10:30:24;99610.03;;;13.24;61.31
84758;BME280;74981;52.476;16.656;2024-02-26T10:35:26;99610.41;;;13.35;60.67
84758;BME280;74981;52.476;16.656;2024-02-26T10:40:28;99610.46;;;13.39;60.39
84758;BME280;74981;52.476;16.656;2024-02-26T10:45:32;99605.83;;;13.54;60.30
84758;BME280;74981;52.476;16.656;2024-02-26T10:50:34;99597.05;;;13.63;60.22
84758;BME280;74981;52.476;16.656;2024-02-26T10:55:37;99594.33;;;13.82;60.30
84758;BME280;74981;52.476;16.656;2024-02-26T11:00:40;99601.88;;;13.93;59.16
84758;BME280;74981;52.476;16.656;2024-02-26T11:05:43;99602.70;;;14.00;59.07
84758;BME280;74981;52.476;16.656;2024-02-26T11:10:47;99600.31;;;14.13;58.98
84758;BME280;74981;52.476;16.656;2024-02-26T11:15:50;99591.48;;;14.17;57.83
84758;BME280;74981;52.476;16.656;2024-02-26T11:20:54;99590.08;;;14.12;58.36
84758;BME280;74981;52.476;16.656;2024-02-26T11:25:58;99587.95;;;14.26;58.53
84758;BME280;74981;52.476;16.656;2024-02-26T11:31:02;99584.65;;;14.49;57.55
84758;BME280;74981;52.476;16.656;2024-02-26T11:36:09;99584.86;;;14.55;56.58
84758;BME280;74981;52.476;16.656;2024-02-26T11:41:11;99581.93;;;14.69;57.31
84758;BME280;74981;52.476;16.656;2024-02-26T11:46:25;99577.52;;;14.77;56.27
84758;BME280;74981;52.476;16.656;2024-02-26T11:51:32;99582.08;;;14.90;56.39
84758;BME280;74981;52.476;16.656;2024-02-26T11:56:35;99581.74;;;14.96;55.56
84758;BME280;74981;52.476;16.656;2024-02-26T12:01:38;99581.64;;;14.98;55.68
84758;BME280;74981;52.476;16.656;2024-02-26T12:06:41;99578.14;;;14.94;54.97
84758;BME280;74981;52.476;16.656;2024-02-26T12:11:43;99584.35;;;14.80;55.32
84758;BME280;74981;52.476;16.656;2024-02-26T12:16:48;99583.98;;;14.81;55.39
84758;BME280;74981;52.476;16.656;2024-02-26T12:21:52;99582.23;;;14.81;56.24
84758;BME280;74981;52.476;16.656;2024-02-26T12:26:55;99582.41;;;15.02;55.46
84758;BME280;74981;52.476;16.656;2024-02-26T12:31:57;99583.23;;;15.12;55.30
84758;BME280;74981;52.476;16.656;2024-02-26T12:37:01;99587.59;;;15.23;55.24
84758;BME280;74981;52.476;16.656;2024-02-26T12:42:04;99589.99;;;15.26;54.94
84758;BME280;74981;52.476;16.656;2024-02-26T12:47:07;99589.91;;;15.16;54.33
84758;BME280;74981;52.476;16.656;2024-02-26T12:52:10;99583.55;;;15.13;54.25
84758;BME280;74981;52.476;16.656;2024-02-26T12:57:12;99581.55;;;15.01;54.16
84758;BME280;74981;52.476;16.656;2024-02-26T13:02:15;99583.46;;;14.92;54.34
84758;BME280;74981;52.476;16.656;2024-02-26T13:07:17;99588.86;;;14.88;54.33
84758;BME280;74981;52.476;16.656;2024-02-26T13:12:20;99594.83;;;14.70;54.20
84758;BME280;74981;52.476;16.656;2024-02-26T13:17:23;99594.40;;;14.69;55.45
84758;BME280;74981;52.476;16.656;2024-02-26T13:22:25;99601.02;;;14.66;54.71
84758;BME280;74981;52.476;16.656;2024-02-26T13:27:27;99599.30;;;14.50;54.21
84758;BME280;74981;52.476;16.656;2024-02-26T13:32:30;99606.80;;;14.32;54.68
84758;BME280;74981;52.476;16.656;2024-02-26T13:37:33;99612.77;;;14.26;55.21
84758;BME280;74981;52.476;16.656;2024-02-26T13:42:35;99617.65;;;14.23;55.90
84758;BME280;74981;52.476;16.656;2024-02-26T13:47:37;99619.89;;;14.17;55.55
84758;BME280;74981;52.476;16.656;2024-02-26T13:52:40;99625.79;;;14.08;56.23
84758;BME280;74981;52.476;16.656;2024-02-26T13:57:42;99630.46;;;14.04;56.63
84758;BME280;74981;52.476;16.656;2024-02-26T14:02:44;99633.85;;;13.98;56.43
84758;BME280;74981;52.476;16.656;2024-02-26T14:07:46;99630.98;;;13.87;56.59
84758;BME280;74981;52.476;16.656;2024-02-26T14:12:49;99627.13;;;13.79;57.32
84758;BME280;74981;52.476;16.656;2024-02-26T14:17:52;99627.48;;;13.69;56.95
84758;BME280;74981;52.476;16.656;2024-02-26T14:22:54;99626.30;;;13.56;57.59
84758;BME280;74981;52.476;16.656;2024-02-26T14:27:56;99628.66;;;13.48;57.66
84758;BME280;74981;52.476;16.656;2024-02-26T14:32:59;99630.67;;;13.35;57.93
84758;BME280;74981;52.476;16.656;2024-02-26T14:38:01;99633.99;;;13.23;58.82
84758;BME280;74981;52.476;16.656;2024-02-26T14:43:03;99631.55;;;13.10;59.13
84758;BME280;74981;52.476;16.656;2024-02-26T14:48:07;99637.52;;;12.98;59.75
84758;BME280;74981;52.476;16.656;2024-02-26T14:53:09;99640.46;;;12.95;59.94
84758;BME280;74981;52.476;16.656;2024-02-26T14:58:12;99640.89;;;12.86;59.94
84758;BME280;74981;52.476;16.656;2024-02-26T15:03:14;99645.31;;;12.78;60.03
84758;BME280;74981;52.476;16.656;2024-02-26T15:08:16;99649.88;;;12.76;60.71
84758;BME280;74981;52.476;16.656;2024-02-26T15:13:19;99647.03;;;12.74;61.35
84758;BME280;74981;52.476;16.656;2024-02-26T15:18:21;99648.84;;;12.66;61.78
84758;BME280;74981;52.476;16.656;2024-02-26T15:23:23;99653.30;;;12.50;62.05
84758;BME280;74981;52.476;16.656;2024-02-26T15:28:27;99657.61;;;12.33;62.55
84758;BME280;74981;52.476;16.656;2024-02-26T15:33:29;99654.06;;;12.17;62.41
84758;BME280;74981;52.476;16.656;2024-02-26T15:38:32;99657.67;;;12.00;62.53
84758;BME280;74981;52.476;16.656;2024-02-26T15:43:34;99661.49;;;11.86;63.14
84758;BME280;74981;52.476;16.656;2024-02-26T15:48:37;99665.83;;;11.75;63.62
84758;BME280;74981;52.476;16.656;2024-02-26T15:53:40;99677.14;;;11.67;63.83
84758;BME280;74981;52.476;16.656;2024-02-26T15:58:42;99673.27;;;11.56;63.92
84758;BME280;74981;52.476;16.656;2024-02-26T16:03:44;99678.51;;;11.45;64.35
84758;BME280;74981;52.476;16.656;2024-02-26T16:08:47;99682.71;;;11.34;64.68
84758;BME280;74981;52.476;16.656;2024-02-26T16:13:55;99689.23;;;11.20;65.19
84758;BME280;74981;52.476;16.656;2024-02-26T16:19:08;99691.55;;;11.06;65.50
84758;BME280;74981;52.476;16.656;2024-02-26T16:24:11;99692.23;;;10.99;65.89
84758;BME280;74981;52.476;16.656;2024-02-26T16:29:13;99692.59;;;10.91;66.17
84758;BME280;74981;52.476;16.656;2024-02-26T16:34:16;99704.92;;;10.82;66.43
84758;BME280;74981;52.476;16.656;2024-02-26T16:39:18;99715.83;;;10.72;66.57
84758;BME280;74981;52.476;16.656;2024-02-26T16:44:20;99719.70;;;10.64;66.64
84758;BME280;74981;52.476;16.656;2024-02-26T16:49:22;99723.90;;;10.56;67.13
84758;BME280;74981;52.476;16.656;2024-02-26T16:54:25;99728.36;;;10.52;67.83
84758;BME280;74981;52.476;16.656;2024-02-26T16:59:27;99725.86;;;10.45;68.45
84758;BME280;74981;52.476;16.656;2024-02-26T17:04:30;99727.05;;;10.37;68.92
84758;BME280;74981;52.476;16.656;2024-02-26T17:09:33;99728.23;;;10.31;69.30
84758;BME280;74981;52.476;16.656;2024-02-26T17:14:36;99731.00;;;10.30;69.62
84758;BME280;74981;52.476;16.656;2024-02-26T17:19:38;99734.44;;;10.27;70.10
84758;BME280;74981;52.476;16.656;2024-02-26T17:24:40;99733.61;;;10.21;70.58
84758;BME280;74981;52.476;16.656;2024-02-26T17:29:43;99744.19;;;10.12;71.22
84758;BME280;74981;52.476;16.656;2024-02-26T17:34:45;99742.48;;;10.09;71.38
84758;BME280;74981;52.476;16.656;2024-02-26T17:39:47;99744.39;;;10.06;71.66
84758;BME280;74981;52.476;16.656;2024-02-26T17:44:50;99744.04;;;9.98;71.92
84758;BME280;74981;52.476;16.656;2024-02-26T17:50:00;99740.59;;;9.92;72.15
84758;BME280;74981;52.476;16.656;2024-02-26T17:55:03;99739.95;;;9.91;72.51
84758;BME280;74981;52.476;16.656;2024-02-26T18:00:08;99742.46;;;9.89;72.59
84758;BME280;74981;52.476;16.656;2024-02-26T18:05:10;99742.30;;;9.84;73.00
84758;BME280;74981;52.476;16.656;2024-02-26T18:10:12;99743.16;;;9.75;73.47
84758;BME280;74981;52.476;16.656;2024-02-26T18:15:15;99746.16;;;9.74;73.37
84758;BME280;74981;52.476;16.656;2024-02-26T18:20:17;99751.73;;;9.71;73.53
84758;BME280;74981;52.476;16.656;2024-02-26T18:25:19;99763.99;;;9.65;74.05
84758;BME280;74981;52.476;16.656;2024-02-26T18:30:22;99770.19;;;9.58;74.16
84758;BME280;74981;52.476;16.656;2024-02-26T18:35:24;99771.84;;;9.57;74.21
84758;BME280;74981;52.476;16.656;2024-02-26T18:40:28;99778.02;;;9.58;74.36
84758;BME280;74981;52.476;16.656;2024-02-26T18:45:30;99785.20;;;9.54;74.45
84758;BME280;74981;52.476;16.656;2024-02-26T18:50:32;99794.20;;;9.48;74.90
84758;BME280;74981;52.476;16.656;2024-02-26T18:55:34;99801.53;;;9.48;74.79
84758;BME280;74981;52.476;16.656;2024-02-26T19:00:38;99810.49;;;9.48;74.95
84758;BME280;74981;52.476;16.656;2024-02-26T19:05:40;99814.67;;;9.45;75.02
84758;BME280;74981;52.476;16.656;2024-02-26T19:10:42;99817.55;;;9.39;75.25
84758;BME280;74981;52.476;16.656;2024-02-26T19:15:45;99817.98;;;9.38;75.47
84758;BME280;74981;52.476;16.656;2024-02-26T19:20:48;99820.70;;;9.34;75.66
84758;BME280;74981;52.476;16.656;2024-02-26T19:25:50;99816.84;;;9.30;75.98
84758;BME280;74981;52.476;16.656;2024-02-26T19:30:52;99814.95;;;9.25;75.93
84758;BME280;74981;52.476;16.656;2024-02-26T19:35:54;99820.25;;;9.26;76.33
84758;BME280;74981;52.476;16.656;2024-02-26T19:40:57;99826.33;;;9.24;76.27
84758;BME280;74981;52.476;16.656;2024-02-26T19:46:15;99829.58;;;9.19;76.83
84758;BME280;74981;52.476;16.656;2024-02-26T19:51:18;99809.21;;;9.12;77.47
84758;BME280;74981;52.476;16.656;2024-02-26T19:56:20;99813.08;;;9.07;78.35
84758;BME280;74981;52.476;16.656;2024-02-26T20:01:23;99819.59;;;9.00;78.64
84758;BME280;74981;52.476;16.656;2024-02-26T20:06:25;99813.13;;;8.95;79.26
84758;BME280;74981;52.476;16.656;2024-02-26T20:11:28;99814.34;;;8.97;79.65
84758;BME280;74981;52.476;16.656;2024-02-26T20:16:30;99817.73;;;8.99;79.33
84758;BME280;74981;52.476;16.656;2024-02-26T20:21:32;99825.98;;;8.99;79.56
84758;BME280;74981;52.476;16.656;2024-02-26T20:26:35;99828.95;;;8.99;79.24
84758;BME280;74981;52.476;16.656;2024-02-26T20:31:38;99833.00;;;8.96;79.38
84758;BME280;74981;52.476;16.656;2024-02-26T20:36:40;99840.40;;;8.91;79.75
84758;BME280;74981;52.476;16.656;2024-02-26T20:41:43;99836.10;;;8.92;79.65
84758;BME280;74981;52.476;16.656;2024-02-26T20:46:46;99828.08;;;8.91;79.89
84758;BME280;74981;52.476;16.656;2024-02-26T20:51:48;99821.96;;;8.86;79.93
84758;BME280;74981;52.476;16.656;2024-02-26T20:56:50;99824.09;;;8.82;80.47
84758;BME280;74981;52.476;16.656;2024-02-26T21:01:52;99826.98;;;8.80;80.54
84758;BME280;74981;52.476;16.656;2024-02-26T21:06:55;99821.29;;;8.79;80.51
84758;BME280;74981;52.476;16.656;2024-02-26T21:11:57;99823.98;;;8.86;80.33
84758;BME280;74981;52.476;16.656;2024-02-26T21:16:59;99825.47;;;8.83;80.57
84758;BME280;74981;52.476;16.656;2024-02-26T21:22:02;99835.10;;;8.79;80.87
84758;BME280;74981;52.476;16.656;2024-02-26T21:27:04;99839.96;;;8.80;80.87
84758;BME280;74981;52.476;16.656;2024-02-26T21:32:07;99843.31;;;8.83;81.10
84758;BME280;74981;52.476;16.656;2024-02-26T21:37:09;99844.05;;;8.79;81.28
84758;BME280;74981;52.476;16.656;2024-02-26T21:42:12;99844.95;;;8.77;81.45
84758;BME280;74981;52.476;16.656;2024-02-26T21:47:14;99858.88;;;8.81;81.74
84758;BME280;74981;52.476;16.656;2024-02-26T21:52:17;99862.80;;;8.83;81.78
84758;BME280;74981;52.476;16.656;2024-02-26T21:57:19;99869.31;;;8.88;81.54
84758;BME280;74981;52.476;16.656;2024-02-26T22:02:21;99869.51;;;8.93;81.38
84758;BME280;74981;52.476;16.656;2024-02-26T22:07:23;99863.13;;;8.93;81.46
84758;BME280;74981;52.476;16.656;2024-02-26T22:12:26;99866.89;;;8.91;81.28
84758;BME280;74981;52.476;16.656;2024-02-26T22:17:28;99866.52;;;8.93;81.12
84758;BME280;74981;52.476;16.656;2024-02-26T22:22:30;99866.86;;;8.93;81.09
84758;BME280;74981;52.476;16.656;2024-02-26T22:27:33;99874.67;;;8.90;81.02
84758;BME280;74981;52.476;16.656;2024-02-26T22:32:35;99883.55;;;8.84;81.18
84758;BME280;74981;52.476;16.656;2024-02-26T22:37:37;99880.87;;;8.84;81.11
84758;BME280;74981;52.476;16.656;2024-02-26T22:42:40;99885.70;;;8.86;80.79
84758;BME280;74981;52.476;16.656;2024-02-26T22:47:42;99886.56;;;8.83;80.74
84758;BME280;74981;52.476;16.656;2024-02-26T22:52:44;99891.88;;;8.75;80.88
84758;BME280;74981;52.476;16.656;2024-02-26T22:57:47;99892.36;;;8.74;80.97
84758;BME280;74981;52.476;16.656;2024-02-26T23:02:49;99893.93;;;8.68;80.80
84758;BME280;74981;52.476;16.656;2024-02-26T23:07:52;99901.89;;;8.65;81.13
84758;BME280;74981;52.476;16.656;2024-02-26T23:12:54;99908.95;;;8.68;80.82
84758;BME280;74981;52.476;16.656;2024-02-26T23:17:57;99909.20;;;8.69;80.93
84758;BME280;74981;52.476;16.656;2024-02-26T23:22:59;99910.39;;;8.68;80.68
84758;BME280;74981;52.476;16.656;2024-02-26T23:28:02;99907.14;;;8.66;80.76
84758;BME280;74981;52.476;16.656;2024-02-26T23:33:05;99907.14;;;8.60;80.94
84758;BME280;74981;52.476;16.656;2024-02-26T23:38:07;99908.45;;;8.54;81.03
84758;BME280;74981;52.476;16.656;2024-02-26T23:43:09;99915.73;;;8.50;81.10
84758;BME280;74981;52.476;16.656;2024-02-26T23:48:12;99919.30;;;8.44;81.80
84758;BME280;74981;52.476;16.656;2024-02-26T23:53:14;99928.72;;;8.38;81.55
84758;BME280;74981;52.476;16.656;2024-02-26T23:58:21;99925.77;;;8.39;81.64
